Overview Statistics Trail Chart Weather Telemetry Raw packets
 

This is the latest recevied weather packets stored in our database for station/object SP6PGH-13. If no packets are shown the sender has not sent any weather packets the latest 10 day(s).

<< 12 13 14 15 16 17 18 >>
Time Temp. Humidity Pressure Rain* Wind** Luminosity Snow
1788313023 11.67° C 93% 1005.8 hPa - - - -
1788312122 11.67° C 93% 1005.8 hPa - - - -
1788311221 11.67° C 93% 1005.8 hPa - - - -
1788310320 12.22° C 92% 1005.9 hPa - - - -
1788309419 12.78° C 93% 1005.9 hPa - - - -
1788308518 12.22° C 93% 1005.9 hPa - - - -
1788307628 11.67° C 93% 1005.9 hPa - - - -
1788306716 11.67° C 93% 1005.9 hPa - - - -
1788305815 12.22° C 93% 1005.9 hPa - - - -
1788304913 12.22° C 92% 1005.9 hPa - - - -
1788304013 12.78° C 91% 1005.9 hPa - - - -
1788303111 12.78° C 90% 1005.9 hPa - - - -
1788302210 12.78° C 88% 1005.9 hPa - - - -
1788301309 13.33° C 87% 1005.9 hPa - - - -
1788300408 13.33° C 89% 1006 hPa - - - -
1788299508 13.33° C 88% 1006 hPa - - - -
1788298607 13.33° C 88% 1005.9 hPa - - - -
1788297705 13.89° C 84% 1006 hPa - - - -
1788296804 14.44° C 83% 1006 hPa - - - -
1788295903 14.44° C 81% 1005.8 hPa - - - -
1788294101 16.11° C 76% 1005.8 hPa - - - -
1788293200 15.56° C 78% 1005.7 hPa - - - -
1788292299 16.11° C 80% 1005.8 hPa - - - -
1788291398 16.67° C 75% 1005.7 hPa - - - -
1788290497 16.67° C 73% 1005.7 hPa - - - -

* Rain since midnight (hover to see other rain measurements)
** Current wind speed in m/s (hover to see current wind gust speed)